Time;durP1;ratioP1;P1;durP2;ratioP2;P2;SDS_P1;SDS_P2;PMS_P1;PMS_P2;Temp;Humidity;BMP_temperature;BMP_pressure;BME280_temperature;BME280_humidity;BME280_pressure;Samples;Min_cycle;Max_cycle;Signal;HPM_P1;HPM_P2
2023/08/28 00:01:59;;;;;;;3.03;1.88;;;;;;;14.29;100.00;100199.22;8399574;28;20119;-62
2023/08/28 00:05:59;;;;;;;3.95;2.13;;;;;;;14.29;100.00;100198.38;8400974;28;20143;-63
2023/08/28 00:10:00;;;;;;;3.90;1.77;;;;;;;13.91;100.00;100199.06;8399842;28;20052;-61
2023/08/28 00:14:00;;;;;;;4.20;1.98;;;;;;;13.83;100.00;100192.59;8399676;28;20041;-61
2023/08/28 00:18:01;;;;;;;3.55;1.92;;;;;;;13.69;100.00;100195.13;8405671;28;20036;-61
2023/08/28 00:22:01;;;;;;;3.75;2.30;;;;;;;13.90;100.00;100192.75;8407599;28;20153;-62
2023/08/28 00:26:02;;;;;;;2.67;2.08;;;;;;;13.82;100.00;100201.75;8406752;28;20450;-62
2023/08/28 00:30:03;;;;;;;2.42;2.15;;;;;;;13.52;100.00;100204.28;8406839;28;20118;-62
2023/08/28 00:34:05;;;;;;;4.45;2.55;;;;;;;13.55;100.00;100193.91;8406273;28;20040;-62
2023/08/28 00:38:05;;;;;;;3.22;2.03;;;;;;;13.51;100.00;100197.16;8404782;28;20499;-62
2023/08/28 00:42:05;;;;;;;3.25;2.65;;;;;;;13.59;100.00;100191.72;8406884;28;20458;-62
2023/08/28 00:46:06;;;;;;;6.07;2.67;;;;;;;13.56;100.00;100200.19;8403654;28;21513;-62
2023/08/28 00:50:07;;;;;;;3.72;2.67;;;;;;;13.53;100.00;100195.09;8406082;28;20450;-62
2023/08/28 00:54:07;;;;;;;4.22;2.78;;;;;;;13.63;100.00;100198.50;8391298;28;20382;-63
2023/08/28 00:58:08;;;;;;;7.10;3.20;;;;;;;13.74;100.00;100198.19;8377895;28;20041;-62
2023/08/28 01:02:09;;;;;;;3.22;2.67;;;;;;;13.71;100.00;100201.25;8382031;28;20094;-62
2023/08/28 01:06:21;;;;;;;4.20;2.85;;;;;;;13.94;100.00;100205.00;8376474;28;20033;-62
2023/08/28 01:10:28;;;;;;;3.53;3.22;;;;;;;13.88;100.00;100192.94;8361213;28;20045;-62
2023/08/28 01:14:29;;;;;;;3.40;2.97;;;;;;;13.88;100.00;100189.38;8378717;28;20033;-62
2023/08/28 01:18:30;;;;;;;4.43;3.40;;;;;;;13.98;100.00;100179.19;8372288;28;20044;-62
2023/08/28 01:22:38;;;;;;;5.78;2.92;;;;;;;13.75;100.00;100183.56;8377576;28;20060;-62
2023/08/28 01:26:39;;;;;;;2.72;2.53;;;;;;;13.65;100.00;100180.19;8375499;28;20028;-62
2023/08/28 01:30:39;;;;;;;3.45;2.70;;;;;;;13.59;100.00;100186.28;8375442;28;20040;-62
2023/08/28 01:34:40;;;;;;;4.88;2.92;;;;;;;13.70;100.00;100183.25;8376135;28;20412;-62
2023/08/28 01:38:48;;;;;;;5.90;2.60;;;;;;;13.48;100.00;100176.59;8377835;28;20440;-62
2023/08/28 01:42:50;;;;;;;4.55;3.00;;;;;;;13.26;100.00;100179.09;8371660;28;20500;-60
2023/08/28 01:46:51;;;;;;;2.90;2.60;;;;;;;13.37;100.00;100167.91;8375017;28;20040;-60
2023/08/28 01:50:51;;;;;;;3.40;3.08;;;;;;;13.36;100.00;100166.22;8376243;28;20040;-58
2023/08/28 01:54:52;;;;;;;3.25;2.78;;;;;;;13.32;100.00;100173.00;8374838;28;20037;-57
2023/08/28 01:58:55;;;;;;;3.08;2.45;;;;;;;13.11;100.00;100172.59;8376927;28;20404;-57
2023/08/28 02:02:56;;;;;;;3.75;2.47;;;;;;;13.00;100.00;100170.19;8370634;28;20044;-57
2023/08/28 02:06:57;;;;;;;3.17;2.60;;;;;;;13.19;100.00;100175.34;8376041;28;20041;-57
2023/08/28 02:10:57;;;;;;;4.85;2.78;;;;;;;13.20;100.00;100166.19;8375892;28;20040;-59
2023/08/28 02:14:58;;;;;;;2.67;2.42;;;;;;;13.23;100.00;100163.13;8374346;28;20033;-57
2023/08/28 02:18:58;;;;;;;2.90;2.13;;;;;;;13.23;100.00;100155.00;8383059;28;20055;-59
2023/08/28 02:22:59;;;;;;;5.05;2.40;;;;;;;13.11;100.00;100161.75;8409096;28;20040;-59
2023/08/28 02:27:00;;;;;;;5.88;3.13;;;;;;;13.04;100.00;100168.84;8406618;28;20123;-59
2023/08/28 02:31:03;;;;;;;4.63;2.30;;;;;;;13.03;100.00;100169.88;8407674;28;20412;-58
2023/08/28 02:35:06;;;;;;;3.70;2.13;;;;;;;13.02;100.00;100181.75;8403674;28;20124;-58
2023/08/28 02:39:06;;;;;;;2.53;2.33;;;;;;;13.10;100.00;100181.75;8407697;28;20046;-57
2023/08/28 02:43:07;;;;;;;2.60;2.40;;;;;;;12.90;100.00;100180.31;8408404;28;20040;-57
2023/08/28 02:47:07;;;;;;;3.95;2.38;;;;;;;12.81;100.00;100186.72;8404448;28;20488;-58
2023/08/28 02:51:08;;;;;;;4.82;2.58;;;;;;;12.65;100.00;100198.31;8406287;28;20185;-58
2023/08/28 02:55:09;;;;;;;3.65;2.65;;;;;;;12.59;100.00;100209.00;8407933;28;20036;-59
2023/08/28 02:59:09;;;;;;;3.17;2.60;;;;;;;12.59;100.00;100209.81;8407862;28;20509;-57
2023/08/28 03:03:10;;;;;;;3.53;2.67;;;;;;;12.68;100.00;100208.00;8405592;28;20040;-58
2023/08/28 03:07:10;;;;;;;4.75;2.80;;;;;;;12.83;100.00;100211.81;8406342;28;20035;-58
2023/08/28 03:11:11;;;;;;;3.35;2.72;;;;;;;12.78;100.00;100208.75;8406929;28;20036;-58
2023/08/28 03:15:11;;;;;;;4.57;2.65;;;;;;;12.82;100.00;100216.41;8406359;28;20086;-57
2023/08/28 03:19:12;;;;;;;3.47;2.47;;;;;;;12.81;100.00;100208.41;8404710;28;20036;-58
2023/08/28 03:23:12;;;;;;;3.10;2.55;;;;;;;12.65;100.00;100219.16;8407616;28;20078;-57
2023/08/28 03:27:13;;;;;;;3.30;2.90;;;;;;;12.72;100.00;100225.66;8406847;28;20122;-58
2023/08/28 03:31:13;;;;;;;3.05;2.75;;;;;;;12.71;100.00;100224.81;8406766;28;20513;-58
2023/08/28 03:35:14;;;;;;;3.75;3.20;;;;;;;12.78;100.00;100220.44;8405725;28;20056;-57
2023/08/28 03:39:15;;;;;;;3.25;2.95;;;;;;;12.82;100.00;100223.69;8407300;28;20032;-58
2023/08/28 03:43:15;;;;;;;5.25;2.72;;;;;;;12.77;100.00;100220.59;8407472;28;20040;-57
2023/08/28 03:47:16;;;;;;;6.05;2.90;;;;;;;13.05;100.00;100211.28;8385390;28;20036;-57
2023/08/28 03:51:17;;;;;;;3.38;2.83;;;;;;;13.09;100.00;100204.50;8395722;28;20052;-60
2023/08/28 03:55:17;;;;;;;3.08;2.47;;;;;;;13.07;100.00;100206.50;8413779;28;20044;-58
2023/08/28 03:59:18;;;;;;;2.88;1.80;;;;;;;13.10;100.00;100203.47;8413248;28;20121;-58
2023/08/28 04:03:18;;;;;;;5.20;2.40;;;;;;;13.06;100.00;100196.69;8410617;28;20496;-57
2023/08/28 04:07:22;;;;;;;2.03;1.92;;;;;;;12.51;100.00;100195.38;8404513;28;20032;-58
2023/08/28 04:11:23;;;;;;;3.80;2.33;;;;;;;12.41;100.00;100200.06;8407632;28;20115;-57
2023/08/28 04:15:23;;;;;;;3.40;2.58;;;;;;;12.48;100.00;100206.53;8409250;28;20098;-58
2023/08/28 04:19:24;;;;;;;3.75;2.75;;;;;;;12.53;100.00;100204.22;8410897;28;20539;-58
2023/08/28 04:23:25;;;;;;;4.50;2.97;;;;;;;12.60;100.00;100199.84;8405424;28;20093;-58
2023/08/28 04:27:26;;;;;;;5.03;2.80;;;;;;;12.62;100.00;100197.78;8409245;28;20040;-58
2023/08/28 04:31:26;;;;;;;3.60;3.05;;;;;;;12.44;100.00;100194.31;8408647;28;20101;-57
2023/08/28 04:35:27;;;;;;;4.03;2.58;;;;;;;12.37;100.00;100193.25;8405824;28;20064;-59
2023/08/28 04:39:28;;;;;;;5.68;2.92;;;;;;;12.26;100.00;100190.81;8410137;28;20496;-58
2023/08/28 04:43:29;;;;;;;6.85;3.28;;;;;;;12.35;100.00;100190.69;8405326;28;20441;-58
2023/08/28 04:47:29;;;;;;;4.50;2.70;;;;;;;12.38;100.00;100189.53;8403536;28;20028;-58
2023/08/28 04:51:30;;;;;;;3.85;3.00;;;;;;;12.60;100.00;100188.97;8407864;28;20028;-58
2023/08/28 04:55:30;;;;;;;5.15;2.90;;;;;;;12.51;100.00;100173.69;8405486;28;20059;-58
2023/08/28 04:59:31;;;;;;;3.65;2.97;;;;;;;12.53;100.00;100183.34;8403917;28;20033;-59
2023/08/28 05:03:31;;;;;;;4.20;2.72;;;;;;;12.59;100.00;100184.59;8403417;28;20459;-57
2023/08/28 05:07:31;;;;;;;2.72;2.42;;;;;;;12.55;100.00;100185.91;8408566;28;20126;-58
2023/08/28 05:11:32;;;;;;;5.05;4.18;;;;;;;12.55;100.00;100185.91;8409073;28;20037;-59
2023/08/28 05:15:32;;;;;;;4.43;2.78;;;;;;;12.62;100.00;100186.94;8408587;28;20625;-58
2023/08/28 05:19:33;;;;;;;4.22;3.13;;;;;;;12.64;100.00;100193.06;8406282;28;20043;-58
2023/08/28 05:23:33;;;;;;;7.47;4.15;;;;;;;12.78;100.00;100192.47;8399677;28;20500;-58
2023/08/28 05:27:34;;;;;;;3.85;2.95;;;;;;;12.65;100.00;100205.59;8374106;28;20047;-57
2023/08/28 05:31:35;;;;;;;4.32;3.08;;;;;;;12.71;100.00;100208.53;8374268;28;20036;-57
2023/08/28 05:35:36;;;;;;;3.97;2.72;;;;;;;12.85;100.00;100207.06;8375688;28;20472;-57
2023/08/28 05:39:38;;;;;;;4.70;3.05;;;;;;;13.00;100.00;100214.47;8368279;28;20045;-57
2023/08/28 05:43:38;;;;;;;3.65;2.95;;;;;;;13.14;100.00;100205.69;8374930;28;20029;-58
2023/08/28 05:47:40;;;;;;;5.28;3.15;;;;;;;13.29;100.00;100214.91;8371121;28;20037;-57
2023/08/28 05:51:41;;;;;;;3.65;2.72;;;;;;;13.57;100.00;100223.63;8373698;28;20385;-59
2023/08/28 05:55:41;;;;;;;15.00;3.97;;;;;;;13.75;100.00;100216.19;8371436;28;20052;-57
2023/08/28 05:59:42;;;;;;;2.90;2.53;;;;;;;13.81;100.00;100207.34;8369397;28;20045;-57
2023/08/28 06:03:42;;;;;;;5.13;2.47;;;;;;;14.03;100.00;100220.28;8369733;28;20048;-58
2023/08/28 06:07:44;;;;;;;3.58;2.38;;;;;;;14.14;100.00;100211.78;8371824;28;20175;-57
2023/08/28 06:11:45;;;;;;;5.93;2.38;;;;;;;14.32;100.00;100209.75;8365960;28;20033;-57
2023/08/28 06:15:45;;;;;;;2.53;2.22;;;;;;;14.47;100.00;100209.91;8371815;28;20043;-57
2023/08/28 06:19:46;;;;;;;2.45;2.08;;;;;;;14.64;100.00;100201.53;8374047;28;20043;-57
2023/08/28 06:23:46;;;;;;;5.50;2.90;;;;;;;14.88;100.00;100201.44;8374531;28;20032;-57
2023/08/28 06:27:47;;;;;;;4.22;2.00;;;;;;;15.18;100.00;100203.38;8375504;28;20062;-59
2023/08/28 06:31:48;;;;;;;3.17;2.20;;;;;;;15.41;100.00;100196.13;8373573;28;20132;-57
2023/08/28 06:35:48;;;;;;;3.28;2.25;;;;;;;15.63;100.00;100189.88;8372505;28;20643;-58
2023/08/28 06:39:49;;;;;;;8.07;3.05;;;;;;;16.00;100.00;100188.19;8377015;28;20071;-57
2023/08/28 06:43:49;;;;;;;5.45;2.85;;;;;;;16.02;99.23;100189.72;8371022;28;20033;-58
2023/08/28 06:47:50;;;;;;;4.50;2.67;;;;;;;16.26;98.52;100189.53;8372142;28;20511;-57
2023/08/28 06:51:50;;;;;;;9.02;3.33;;;;;;;16.44;99.24;100191.94;8372626;28;20061;-57
2023/08/28 06:55:51;;;;;;;8.05;2.42;;;;;;;16.60;98.71;100195.34;8373642;28;20052;-58
2023/08/28 06:59:53;;;;;;;4.95;2.45;;;;;;;16.73;96.91;100202.84;8373411;28;21009;-57
2023/08/28 07:03:53;;;;;;;4.38;2.67;;;;;;;16.94;96.55;100205.69;8373198;28;20036;-57
2023/08/28 07:07:55;;;;;;;3.42;2.90;;;;;;;16.91;96.03;100206.94;8372219;28;20041;-57
2023/08/28 07:11:55;;;;;;;5.35;2.40;;;;;;;16.95;98.82;100208.22;8375860;28;20051;-56
2023/08/28 07:15:56;;;;;;;4.95;2.50;;;;;;;16.85;99.61;100212.28;8373175;28;20067;-57
2023/08/28 07:19:57;;;;;;;10.07;3.13;;;;;;;17.19;98.59;100215.28;8371519;28;20063;-57
2023/08/28 07:23:57;;;;;;;3.53;2.95;;;;;;;17.66;97.33;100229.38;8372424;28;20037;-58
2023/08/28 07:27:58;;;;;;;5.20;3.15;;;;;;;17.66;94.28;100212.09;8375223;28;20055;-58
2023/08/28 07:31:58;;;;;;;4.57;2.72;;;;;;;18.26;93.29;100216.06;8372072;28;20033;-57
2023/08/28 07:35:58;;;;;;;7.78;3.22;;;;;;;18.44;91.92;100213.75;8375001;28;20060;-59
2023/08/28 07:39:59;;;;;;;3.10;2.47;;;;;;;18.73;92.38;100208.03;8373602;28;20423;-57
2023/08/28 07:43:59;;;;;;;3.03;2.38;;;;;;;18.56;90.60;100206.69;8375794;28;20061;-57
2023/08/28 07:48:00;;;;;;;6.03;3.08;;;;;;;18.81;89.83;100198.81;8372646;28;20049;-57
2023/08/28 07:52:00;;;;;;;10.73;3.38;;;;;;;18.89;91.26;100199.53;8373741;28;20045;-58
2023/08/28 07:56:02;;;;;;;7.55;2.88;;;;;;;19.11;90.25;100212.09;8375733;28;20492;-57
2023/08/28 08:00:06;;;;;;;6.63;2.78;;;;;;;19.27;90.16;100206.28;8373982;28;20090;-57
2023/08/28 08:04:15;;;;;;;5.63;3.05;;;;;;;19.57;88.98;100206.81;8369593;28;20037;-57
2023/08/28 08:08:16;;;;;;;4.40;2.53;;;;;;;20.02;88.05;100211.59;8376591;28;20040;-58
2023/08/28 08:12:16;;;;;;;5.28;2.65;;;;;;;20.03;86.61;100223.44;8374015;28;20041;-57
2023/08/28 08:16:17;;;;;;;4.95;2.70;;;;;;;20.17;84.86;100238.88;8371500;28;20033;-59
2023/08/28 08:20:17;;;;;;;5.95;3.15;;;;;;;19.90;82.48;100231.59;8368690;28;20095;-59
2023/08/28 08:24:18;;;;;;;7.15;3.40;;;;;;;19.78;83.93;100231.38;8374621;28;20041;-57
2023/08/28 08:28:18;;;;;;;4.70;3.22;;;;;;;20.09;85.53;100222.56;8374241;28;20056;-57
2023/08/28 08:32:19;;;;;;;9.82;4.28;;;;;;;19.86;82.44;100217.47;8372659;28;20128;-60
2023/08/28 08:36:19;;;;;;;8.88;4.15;;;;;;;19.94;84.10;100213.69;8377088;28;20044;-61
2023/08/28 08:40:24;;;;;;;8.77;3.53;;;;;;;19.88;82.42;100220.00;8379691;28;20426;-61
2023/08/28 08:44:25;;;;;;;7.80;3.88;;;;;;;20.31;81.46;100213.13;8379576;28;20148;-61
2023/08/28 08:48:26;;;;;;;8.18;2.72;;;;;;;20.59;79.59;100220.06;8376612;28;20048;-61
2023/08/28 08:52:28;;;;;;;6.80;2.53;;;;;;;20.95;79.93;100225.16;8380591;28;20035;-61
2023/08/28 08:56:31;;;;;;;5.50;2.90;;;;;;;20.78;80.39;100230.22;8378342;28;20479;-60
2023/08/28 09:00:38;;;;;;;8.73;3.20;;;;;;;20.26;80.83;100218.41;8378514;28;20033;-61
2023/08/28 09:04:41;;;;;;;6.93;2.92;;;;;;;20.29;82.35;100220.72;8378698;28;20037;-61
2023/08/28 09:08:42;;;;;;;5.28;2.05;;;;;;;20.43;81.39;100214.19;8377260;28;20044;-61
2023/08/28 09:12:43;;;;;;;7.95;2.60;;;;;;;20.28;81.37;100210.81;8380247;28;20036;-61
2023/08/28 09:16:43;;;;;;;4.82;1.58;;;;;;;20.13;81.44;100212.91;8375969;28;20078;-60
2023/08/28 09:20:44;;;;;;;5.40;1.80;;;;;;;20.18;82.20;100207.59;8378569;28;20036;-61
2023/08/28 09:24:44;;;;;;;3.35;1.90;;;;;;;20.12;81.90;100200.19;8377295;28;20124;-61
2023/08/28 09:29:03;;;;;;;6.78;1.23;;;;;;;19.97;80.65;100185.84;8377981;28;20037;-61
2023/08/28 09:33:06;;;;;;;5.15;1.60;;;;;;;20.00;81.62;100188.16;8375695;28;20044;-61
2023/08/28 09:37:09;;;;;;;5.45;1.85;;;;;;;20.08;82.75;100182.44;8376475;28;20065;-61
2023/08/28 09:41:10;;;;;;;6.90;1.75;;;;;;;20.20;82.56;100178.06;8379486;28;20039;-57
2023/08/28 09:45:10;;;;;;;3.70;1.80;;;;;;;20.31;81.94;100177.44;8376867;28;20068;-57
2023/08/28 09:49:13;;;;;;;6.03;1.80;;;;;;;20.30;82.48;100182.06;8375635;28;20040;-57
2023/08/28 09:53:15;;;;;;;4.57;1.65;;;;;;;20.33;81.93;100176.16;8377042;28;20068;-57
2023/08/28 09:57:15;;;;;;;3.55;1.20;;;;;;;20.51;80.68;100181.00;8378529;28;20037;-57
2023/08/28 10:01:16;;;;;;;1.92;1.50;;;;;;;20.39;80.62;100179.94;8376917;28;20056;-58
2023/08/28 10:05:20;;;;;;;6.85;2.00;;;;;;;20.89;80.04;100171.03;8377345;28;20037;-58
2023/08/28 10:09:22;;;;;;;3.85;2.50;;;;;;;20.81;77.40;100171.25;8373926;28;20578;-58
2023/08/28 10:13:23;;;;;;;3.08;2.17;;;;;;;20.75;78.77;100170.22;8378038;28;20056;-58
2023/08/28 10:17:27;;;;;;;4.60;1.90;;;;;;;21.31;78.31;100170.47;8371789;28;20040;-58
2023/08/28 10:21:28;;;;;;;4.43;2.33;;;;;;;21.99;78.04;100177.94;8404266;28;20484;-58
2023/08/28 10:25:30;;;;;;;3.45;1.77;;;;;;;21.95;74.98;100184.97;8409226;28;20391;-58
2023/08/28 10:29:33;;;;;;;3.55;2.50;;;;;;;21.74;75.30;100176.22;8409479;28;20039;-58
2023/08/28 10:33:36;;;;;;;5.10;2.05;;;;;;;21.65;75.62;100180.25;8407020;28;20056;-58
2023/08/28 10:37:38;;;;;;;2.85;1.60;;;;;;;21.73;76.20;100186.34;8410351;28;20051;-58
2023/08/28 10:41:39;;;;;;;4.07;1.88;;;;;;;22.21;75.53;100176.53;8408406;28;20056;-58
2023/08/28 10:45:40;;;;;;;5.07;1.90;;;;;;;22.44;73.27;100179.47;8409250;28;20751;-58
2023/08/28 10:49:41;;;;;;;3.55;1.63;;;;;;;22.28;73.32;100182.81;8408878;28;20042;-58
2023/08/28 10:53:42;;;;;;;5.95;1.83;;;;;;;21.71;74.92;100182.94;8407655;28;20033;-58
2023/08/28 10:57:48;;;;;;;6.20;1.63;;;;;;;21.98;74.66;100189.16;8409643;28;20037;-58
2023/08/28 11:01:52;;;;;;;2.85;1.55;;;;;;;22.88;72.49;100176.53;8379103;28;20067;-59
2023/08/28 11:06:32;;;;;;;5.57;1.60;;;;;;;24.01;66.65;100177.69;8374479;28;20127;-59
2023/08/28 11:10:33;;;;;;;3.90;1.10;;;;;;;25.27;62.28;100178.84;8407125;28;20538;-58
2023/08/28 11:14:38;;;;;;;4.57;1.20;;;;;;;24.66;63.42;100194.06;8408543;28;20375;-58
2023/08/28 11:18:39;;;;;;;;;;;;;;;24.65;62.16;100191.53;8404444;28;20583;-58
2023/08/28 11:22:42;;;;;;;4.55;1.10;;;;;;;22.84;67.33;100185.50;8412511;28;19993;-58
2023/08/28 11:26:43;;;;;;;2.08;1.33;;;;;;;22.25;69.87;100197.03;8403238;28;20063;-58
2023/08/28 11:30:45;;;;;;;3.38;0.90;;;;;;;22.40;70.85;100188.44;8406605;28;20039;-58
2023/08/28 11:34:45;;;;;;;2.55;1.38;;;;;;;22.53;70.53;100194.69;8407914;28;20380;-59
2023/08/28 11:38:47;;;;;;;3.60;0.85;;;;;;;22.27;68.40;100194.06;8408674;28;20036;-58
2023/08/28 11:42:49;;;;;;;3.90;0.82;;;;;;;22.14;68.14;100194.16;8406388;28;20742;-58
2023/08/28 11:46:49;;;;;;;3.55;1.13;;;;;;;22.36;68.57;100192.72;8405046;28;20036;-58
2023/08/28 11:50:58;;;;;;;2.97;0.70;;;;;;;22.49;68.84;100187.94;8406416;28;20058;-58
2023/08/28 11:55:03;;;;;;;1.92;1.00;;;;;;;22.60;68.62;100195.47;8405871;28;20044;-58
2023/08/28 11:59:04;;;;;;;4.60;1.15;;;;;;;22.22;68.06;100197.47;8407351;28;20098;-58
2023/08/28 12:03:06;;;;;;;2.30;1.50;;;;;;;22.27;67.94;100196.81;8407619;28;20044;-59
2023/08/28 12:07:25;;;;;;;2.97;1.10;;;;;;;22.30;70.27;100197.22;8408201;28;20040;-59
2023/08/28 12:11:25;;;;;;;4.63;1.35;;;;;;;22.46;70.07;100191.13;8407871;28;20101;-60
2023/08/28 12:15:31;;;;;;;6.40;0.95;;;;;;;22.31;70.42;100196.13;8415240;28;20028;-59
2023/08/28 12:19:31;;;;;;;5.28;0.93;;;;;;;22.02;69.81;100202.25;8409269;28;20028;-59
2023/08/28 12:23:32;;;;;;;3.45;1.00;;;;;;;22.03;70.91;100198.47;8413794;28;20043;-61
2023/08/28 12:27:33;;;;;;;2.75;0.85;;;;;;;22.15;71.13;100188.44;8411789;28;20033;-61
2023/08/28 12:31:34;;;;;;;3.30;1.48;;;;;;;22.04;70.79;100199.28;8412225;28;20381;-60
2023/08/28 12:35:38;;;;;;;5.18;1.33;;;;;;;21.96;71.85;100197.66;8412915;28;20040;-61
2023/08/28 12:39:55;;;;;;;4.10;1.17;;;;;;;21.87;72.06;100199.00;8390597;28;20037;-61
2023/08/28 12:43:56;;;;;;;3.05;1.10;;;;;;;21.81;71.58;100197.13;8378745;28;20124;-61
2023/08/28 12:47:56;;;;;;;9.32;1.88;;;;;;;21.62;71.49;100191.72;8375732;28;20040;-61
2023/08/28 12:51:59;;;;;;;2.28;1.27;;;;;;;21.50;70.63;100186.03;8377585;28;20060;-59
2023/08/28 12:55:59;;;;;;;6.20;1.73;;;;;;;21.42;71.40;100172.53;8377692;28;20412;-59
2023/08/28 13:00:00;;;;;;;5.00;1.63;;;;;;;21.45;72.84;100174.84;8375645;28;20083;-60
2023/08/28 13:04:01;;;;;;;3.03;1.58;;;;;;;21.50;73.70;100161.25;8379161;28;20053;-58
2023/08/28 13:08:01;;;;;;;5.38;1.55;;;;;;;21.48;73.92;100165.31;8376601;28;20041;-58
2023/08/28 13:12:02;;;;;;;7.95;1.58;;;;;;;21.45;73.10;100166.59;8378023;28;20040;-59
2023/08/28 13:16:02;;;;;;;2.38;1.40;;;;;;;21.55;72.36;100168.84;8375825;28;20060;-59
2023/08/28 13:20:04;;;;;;;4.28;1.45;;;;;;;21.53;72.11;100166.31;8375695;28;20037;-60
2023/08/28 13:24:05;;;;;;;4.15;1.35;;;;;;;21.51;72.14;100165.72;8377436;28;20037;-60
2023/08/28 13:28:06;;;;;;;2.40;1.23;;;;;;;21.88;71.83;100178.66;8377305;28;20055;-59
2023/08/28 13:32:06;;;;;;;3.30;1.25;;;;;;;22.07;71.42;100168.56;8376638;28;20678;-60
2023/08/28 13:36:07;;;;;;;3.20;1.58;;;;;;;22.01;71.88;100162.03;8375029;28;20044;-59
2023/08/28 13:40:08;;;;;;;3.85;1.77;;;;;;;22.26;71.45;100165.66;8376818;28;20107;-60
2023/08/28 13:44:08;;;;;;;1.98;1.58;;;;;;;22.23;71.67;100160.59;8377110;28;20094;-60
2023/08/28 13:48:09;;;;;;;3.65;1.65;;;;;;;22.19;69.66;100167.63;8374147;28;20413;-60
2023/08/28 13:52:09;;;;;;;4.05;1.30;;;;;;;22.20;69.69;100160.22;8377562;28;20420;-59
2023/08/28 13:56:10;;;;;;;7.25;1.63;;;;;;;22.29;71.58;100169.88;8375831;28;20040;-60
2023/08/28 14:00:12;;;;;;;3.35;1.40;;;;;;;22.32;70.04;100159.25;8377512;28;20044;-60
2023/08/28 14:04:24;;;;;;;2.42;1.70;;;;;;;22.27;67.97;100161.84;8350550;27;20403;-59
2023/08/28 14:08:25;;;;;;;2.97;1.77;;;;;;;22.13;67.33;100157.50;8374835;28;20036;-59
2023/08/28 14:12:25;;;;;;;2.20;1.70;;;;;;;22.14;67.26;100150.91;8352493;28;20037;-59
2023/08/28 14:16:26;;;;;;;2.78;1.30;;;;;;;22.14;67.87;100167.44;8338422;28;20063;-59
2023/08/28 14:20:27;;;;;;;2.35;1.58;;;;;;;22.20;68.11;100163.78;8352305;28;20056;-59
2023/08/28 14:24:27;;;;;;;2.45;1.42;;;;;;;22.14;67.77;100161.94;8349541;28;20442;-59
2023/08/28 14:28:28;;;;;;;4.00;2.30;;;;;;;22.03;69.14;100154.41;8345688;28;20135;-60
2023/08/28 14:32:29;;;;;;;7.00;2.03;;;;;;;21.98;69.31;100167.13;8349747;28;20518;-59
2023/08/28 14:36:29;;;;;;;3.28;1.85;;;;;;;22.00;69.95;100159.50;8349440;28;20037;-59
2023/08/28 14:40:31;;;;;;;4.90;1.75;;;;;;;22.05;71.59;100149.50;8349951;28;20033;-59
2023/08/28 14:44:32;;;;;;;8.05;2.10;;;;;;;22.20;71.21;100154.72;8346328;28;20763;-59
2023/08/28 14:48:32;;;;;;;4.63;2.03;;;;;;;22.28;70.28;100162.69;8349159;28;20044;-59
2023/08/28 14:52:33;;;;;;;11.77;2.20;;;;;;;22.24;69.73;100170.56;8348969;28;20448;-59
2023/08/28 14:56:33;;;;;;;6.88;2.00;;;;;;;22.10;68.72;100173.63;8346828;28;20048;-60
2023/08/28 15:00:34;;;;;;;2.50;1.92;;;;;;;22.19;70.45;100170.38;8345911;28;20037;-59
2023/08/28 15:04:34;;;;;;;6.68;1.90;;;;;;;22.29;70.54;100173.47;8346932;28;20095;-59
2023/08/28 15:08:35;;;;;;;6.50;2.05;;;;;;;22.32;70.73;100175.78;8348807;28;20033;-58
2023/08/28 15:12:36;;;;;;;1.85;1.45;;;;;;;22.16;70.51;100176.34;8342583;28;20041;-58
2023/08/28 15:16:36;;;;;;;3.47;1.83;;;;;;;22.20;70.89;100183.06;8324015;28;20037;-59
2023/08/28 15:20:37;;;;;;;3.17;1.35;;;;;;;22.14;69.83;100183.97;8324598;28;20510;-58
2023/08/28 15:24:37;;;;;;;2.95;1.73;;;;;;;22.02;69.73;100180.25;8326111;28;20049;-59
2023/08/28 15:28:38;;;;;;;7.38;1.80;;;;;;;21.99;71.06;100175.19;8330323;28;20090;-60
2023/08/28 15:32:38;;;;;;;2.10;1.52;;;;;;;21.96;70.00;100178.38;8326761;28;20041;-58
2023/08/28 15:36:39;;;;;;;2.00;1.80;;;;;;;21.89;70.66;100174.00;8326222;28;20053;-59
2023/08/28 15:40:41;;;;;;;4.18;2.03;;;;;;;21.85;71.48;100173.59;8325452;28;20535;-60
2023/08/28 15:44:42;;;;;;;3.75;2.35;;;;;;;21.77;71.10;100182.09;8327141;28;20521;-60
2023/08/28 15:48:42;;;;;;;3.78;2.45;;;;;;;21.77;74.67;100173.84;8324668;28;20041;-59
2023/08/28 15:52:43;;;;;;;7.50;2.95;;;;;;;21.68;77.38;100180.66;8322967;28;20064;-60
2023/08/28 15:56:43;;;;;;;3.25;2.45;;;;;;;21.61;76.95;100179.84;8322574;28;20103;-60
2023/08/28 16:00:44;;;;;;;6.30;2.65;;;;;;;21.64;77.60;100182.16;8321326;28;20033;-60
2023/08/28 16:04:45;;;;;;;4.05;2.65;;;;;;;21.54;75.67;100181.78;8321286;28;20106;-61
2023/08/28 16:08:45;;;;;;;4.05;2.28;;;;;;;21.53;77.16;100179.25;8325990;28;20254;-57
2023/08/28 16:12:46;;;;;;;4.78;2.33;;;;;;;21.46;77.21;100179.28;8325673;28;20080;-61
2023/08/28 16:16:46;;;;;;;3.53;2.35;;;;;;;21.46;78.84;100181.22;8328803;28;20048;-59
2023/08/28 16:20:48;;;;;;;4.20;2.70;;;;;;;21.44;79.11;100175.94;8319798;28;20045;-60
2023/08/28 16:24:48;;;;;;;3.90;2.45;;;;;;;21.30;78.96;100179.78;8320427;28;20072;-59
2023/08/28 16:28:50;;;;;;;3.97;2.63;;;;;;;21.28;80.98;100177.25;8322284;28;20120;-60
2023/08/28 16:32:52;;;;;;;4.00;2.83;;;;;;;21.30;80.18;100171.53;8322476;28;20059;-59
2023/08/28 16:36:52;;;;;;;5.10;3.35;;;;;;;21.18;80.25;100171.38;8319096;28;20403;-59
2023/08/28 16:40:52;;;;;;;4.97;2.83;;;;;;;21.15;79.06;100173.72;8320287;28;20056;-60
2023/08/28 16:44:53;;;;;;;4.88;3.15;;;;;;;21.01;79.83;100174.78;8321208;28;20164;-62
2023/08/28 16:48:54;;;;;;;3.88;2.83;;;;;;;20.83;80.19;100182.88;8319490;28;20041;-61
2023/08/28 16:52:54;;;;;;;6.10;2.25;;;;;;;20.83;80.36;100177.38;8321400;28;20461;-60
2023/08/28 16:56:55;;;;;;;3.08;2.45;;;;;;;20.72;80.89;100183.50;8321494;28;20045;-60
2023/08/28 17:00:56;;;;;;;3.88;2.20;;;;;;;20.61;81.19;100173.16;8321155;28;20451;-60
2023/08/28 17:04:57;;;;;;;4.10;2.42;;;;;;;20.56;81.56;100171.06;8321124;28;20045;-59
2023/08/28 17:08:57;;;;;;;2.50;2.30;;;;;;;20.41;81.82;100178.72;8321418;28;20041;-61
2023/08/28 17:12:58;;;;;;;3.10;2.50;;;;;;;20.30;83.20;100176.59;8321142;28;20061;-61
2023/08/28 17:17:01;;;;;;;3.47;2.50;;;;;;;20.18;84.19;100169.19;8320657;28;20037;-61
2023/08/28 17:21:02;;;;;;;5.13;2.22;;;;;;;20.14;83.59;100176.16;8320391;28;20144;-61
2023/08/28 17:25:02;;;;;;;2.75;2.40;;;;;;;20.08;83.11;100176.97;8320658;28;20120;-61
2023/08/28 17:29:03;;;;;;;4.03;2.95;;;;;;;20.04;83.36;100184.78;8320748;28;20502;-61
2023/08/28 17:33:03;;;;;;;3.75;2.13;;;;;;;19.98;83.25;100187.50;8320046;28;20504;-61
2023/08/28 17:37:04;;;;;;;7.05;2.17;;;;;;;19.92;84.19;100174.63;8320270;28;20125;-61
2023/08/28 17:41:04;;;;;;;3.60;2.30;;;;;;;19.84;84.17;100180.31;8318185;28;20044;-60
2023/08/28 17:45:06;;;;;;;2.55;2.20;;;;;;;19.72;84.70;100177.31;8319643;28;20124;-61
2023/08/28 17:49:06;;;;;;;3.33;2.30;;;;;;;19.61;84.74;100180.66;8319908;28;20200;-61
2023/08/28 17:53:07;;;;;;;2.10;1.88;;;;;;;19.58;84.46;100188.47;8320124;28;20053;-61
2023/08/28 17:57:07;;;;;;;2.78;2.30;;;;;;;19.51;84.94;100191.19;8319665;28;20049;-61
2023/08/28 18:01:08;;;;;;;3.17;2.25;;;;;;;19.48;85.08;100207.22;8320275;28;20042;-61
2023/08/28 18:05:10;;;;;;;3.70;3.10;;;;;;;19.39;86.14;100199.16;8315739;28;20046;-61
2023/08/28 18:09:10;;;;;;;3.55;2.70;;;;;;;19.31;88.41;100207.56;8320022;28;20034;-61
2023/08/28 18:13:11;;;;;;;3.35;3.05;;;;;;;18.94;91.05;100198.94;8319208;28;20518;-61
2023/08/28 18:17:13;;;;;;;3.45;3.15;;;;;;;18.82;93.56;100198.63;8320032;28;20048;-61
2023/08/28 18:21:14;;;;;;;4.93;3.30;;;;;;;18.62;94.58;100205.88;8315483;28;20060;-61
2023/08/28 18:25:15;;;;;;;5.90;4.63;;;;;;;18.50;95.56;100196.53;8317100;28;20048;-61
2023/08/28 18:29:15;;;;;;;5.40;4.90;;;;;;;18.48;97.29;100209.53;8318144;28;20041;-61
2023/08/28 18:33:17;;;;;;;5.80;5.30;;;;;;;18.51;97.65;100225.56;8317615;28;20095;-61
2023/08/28 18:37:17;;;;;;;6.78;5.70;;;;;;;18.51;98.48;100225.56;8312758;28;20533;-61